createdAt,value
2023-04-26T00:02:33.072Z,1.10
2023-04-26T00:07:35.712Z,1.02
2023-04-26T00:12:38.162Z,1.10
2023-04-26T00:17:40.293Z,1.08
2023-04-26T00:22:43.093Z,1.02
2023-04-26T00:27:45.093Z,0.90
2023-04-26T00:32:48.112Z,1.13
2023-04-26T00:37:50.218Z,1.00
2023-04-26T00:42:58.874Z,1.02
2023-04-26T00:48:02.321Z,1.10
2023-04-26T00:53:04.850Z,1.13
2023-04-26T00:58:07.305Z,1.00
2023-04-26T01:03:09.507Z,1.20
2023-04-26T01:08:11.964Z,1.10
2023-04-26T01:13:15.244Z,1.20
2023-04-26T01:18:17.306Z,1.00
2023-04-26T01:23:19.468Z,1.10
2023-04-26T01:28:21.762Z,1.00
2023-04-26T01:33:23.825Z,1.02
2023-04-26T01:38:27.211Z,1.08
2023-04-26T01:43:29.568Z,1.30
2023-04-26T01:48:32.896Z,0.98
2023-04-26T01:53:36.337Z,0.90
2023-04-26T01:58:39.766Z,0.90
2023-04-26T02:03:42.029Z,0.90
2023-04-26T02:08:44.192Z,0.90
2023-04-26T02:13:46.265Z,1.00
2023-04-26T02:18:50.175Z,0.93
2023-04-26T02:23:52.954Z,1.13
2023-04-26T02:28:55.108Z,0.85
2023-04-26T02:33:57.211Z,0.70
2023-04-26T02:39:00.145Z,0.80
2023-04-26T02:44:03.009Z,0.98
2023-04-26T02:49:05.196Z,0.82
2023-04-26T02:54:07.592Z,0.85
2023-04-26T02:59:09.992Z,0.80
2023-04-26T03:04:12.221Z,0.90
2023-04-26T03:09:14.524Z,0.80
2023-04-26T03:14:17.565Z,0.90
2023-04-26T03:19:20.236Z,0.73
2023-04-26T03:24:23.054Z,0.98
2023-04-26T03:29:25.718Z,0.80
2023-04-26T03:34:27.883Z,0.90
2023-04-26T03:39:30.027Z,0.88
2023-04-26T03:44:33.251Z,0.80
2023-04-26T03:49:36.558Z,0.85
2023-04-26T03:54:38.792Z,0.82
2023-04-26T03:59:41.101Z,0.63
2023-04-26T04:04:43.606Z,0.70
2023-04-26T04:09:45.986Z,0.80
2023-04-26T04:14:48.161Z,0.90
2023-04-26T04:19:50.658Z,0.70
2023-04-26T04:24:52.921Z,0.75
2023-04-26T04:29:55.482Z,0.70
2023-04-26T04:34:59.242Z,0.80
2023-04-26T04:40:01.418Z,0.70
2023-04-26T04:45:07.457Z,0.82
2023-04-26T04:50:12.478Z,0.80
2023-04-26T04:55:14.577Z,0.93
2023-04-26T05:00:18.475Z,0.82
2023-04-26T05:05:28.645Z,0.80
2023-04-26T05:10:31.004Z,0.50
2023-04-26T05:15:33.315Z,0.73
2023-04-26T05:20:35.535Z,0.55
2023-04-26T05:25:38.312Z,0.80
2023-04-26T05:31:04.349Z,0.95
2023-04-26T05:36:24.656Z,0.80
2023-04-26T05:41:26.920Z,0.65
2023-04-26T05:46:29.403Z,0.80
2023-04-26T05:51:31.518Z,0.80
2023-04-26T05:56:33.756Z,0.77
2023-04-26T06:01:36.636Z,0.60
2023-04-26T06:06:38.821Z,0.70
2023-04-26T06:11:41.048Z,0.98
2023-04-26T06:16:43.853Z,0.70
2023-04-26T06:21:46.372Z,0.68
2023-04-26T06:26:48.498Z,0.80
2023-04-26T06:31:50.591Z,0.80
2023-04-26T06:36:55.216Z,0.60
2023-04-26T06:42:00.012Z,0.50
2023-04-26T06:47:16.398Z,0.82
2023-04-26T06:52:19.460Z,0.68
2023-04-26T06:57:23.296Z,0.57
2023-04-26T07:02:25.549Z,0.60
2023-04-26T07:07:27.920Z,0.60
2023-04-26T07:12:29.945Z,0.70
2023-04-26T07:17:32.644Z,0.55
2023-04-26T07:22:34.737Z,0.63
2023-04-26T07:27:36.901Z,0.70
2023-04-26T07:32:39.005Z,0.60
2023-04-26T07:37:41.181Z,0.90
2023-04-26T07:42:43.328Z,0.60
2023-04-26T07:47:45.683Z,0.77
2023-04-26T07:52:47.890Z,0.77
2023-04-26T07:57:49.967Z,0.77
2023-04-26T08:02:52.200Z,0.60
2023-04-26T08:07:54.579Z,0.60
2023-04-26T08:12:57.542Z,0.45
2023-04-26T08:17:59.703Z,0.60
2023-04-26T08:23:01.994Z,0.55
2023-04-26T08:28:04.605Z,0.57
2023-04-26T08:33:07.166Z,0.70
2023-04-26T08:38:09.236Z,0.47
2023-04-26T08:43:11.901Z,0.60
2023-04-26T08:48:18.534Z,0.80
2023-04-26T08:53:21.760Z,0.60
2023-04-26T08:58:24.329Z,0.60
2023-04-26T09:03:27.224Z,0.55
2023-04-26T09:08:29.844Z,0.60
2023-04-26T09:13:31.980Z,0.63
2023-04-26T09:18:34.330Z,0.60
2023-04-26T09:23:36.902Z,0.80
2023-04-26T09:28:38.982Z,0.50
2023-04-26T09:33:58.265Z,0.50
2023-04-26T09:39:00.707Z,0.50
2023-04-26T09:44:02.907Z,0.50
2023-04-26T09:49:04.986Z,0.60
2023-04-26T09:54:07.586Z,0.68
2023-04-26T09:59:11.694Z,0.63
2023-04-26T10:04:13.968Z,0.50
2023-04-26T10:09:16.172Z,0.52
2023-04-26T10:14:18.662Z,0.50
2023-04-26T10:19:22.413Z,0.50
2023-04-26T10:29:47.686Z,0.47
2023-04-26T10:35:13.647Z,0.60
2023-04-26T10:40:27.571Z,0.50
2023-04-26T10:45:30.590Z,0.55
2023-04-26T10:50:32.596Z,0.75
2023-04-26T10:55:42.671Z,0.60
2023-04-26T11:01:04.635Z,0.60
2023-04-26T11:06:14.049Z,0.65
2023-04-26T11:11:19.637Z,0.63
2023-04-26T11:16:21.793Z,0.80
2023-04-26T11:21:23.948Z,0.47
2023-04-26T11:26:33.391Z,0.50
2023-04-26T11:31:36.673Z,0.60
2023-04-26T11:36:38.978Z,0.75
2023-04-26T11:41:41.100Z,0.70
2023-04-26T11:46:43.707Z,0.55
2023-04-26T11:51:49.829Z,0.55
2023-04-26T11:56:52.010Z,0.52
2023-04-26T12:01:54.204Z,0.68
2023-04-26T12:06:57.143Z,0.60
2023-04-26T12:11:59.612Z,0.50
2023-04-26T12:17:03.444Z,0.60
2023-04-26T12:22:07.132Z,0.63
2023-04-26T12:27:09.225Z,0.60
2023-04-26T12:32:11.258Z,0.52
2023-04-26T12:37:13.297Z,0.45
2023-04-26T12:42:15.376Z,0.80
2023-04-26T12:47:17.448Z,0.50
2023-04-26T12:52:19.499Z,0.45
2023-04-26T12:57:22.086Z,0.60
2023-04-26T13:02:25.006Z,0.43
2023-04-26T13:07:27.944Z,0.55
2023-04-26T13:12:30.150Z,0.65
2023-04-26T13:17:32.343Z,0.80
2023-04-26T13:22:34.964Z,0.70
2023-04-26T13:27:37.178Z,0.60
2023-04-26T13:32:39.903Z,0.50
2023-04-26T13:37:42.533Z,0.43
2023-04-26T13:42:44.598Z,0.50
2023-04-26T13:47:46.717Z,0.50
2023-04-26T13:52:51.114Z,0.50
2023-04-26T13:57:53.133Z,0.75
2023-04-26T14:02:55.380Z,0.47
2023-04-26T14:07:57.597Z,0.60
2023-04-26T14:12:59.855Z,0.50
2023-04-26T14:18:01.985Z,0.75
2023-04-26T14:23:04.043Z,0.32
2023-04-26T14:28:08.463Z,0.60
2023-04-26T14:33:10.747Z,0.60
2023-04-26T14:38:12.910Z,0.65
2023-04-26T14:43:14.902Z,0.40
2023-04-26T14:48:17.285Z,0.93
2023-04-26T14:53:19.573Z,0.50
2023-04-26T14:58:22.337Z,0.40
2023-04-26T15:03:25.117Z,0.50
2023-04-26T15:08:27.437Z,0.30
2023-04-26T15:13:29.609Z,0.52
2023-04-26T15:18:31.954Z,0.50
2023-04-26T15:23:34.062Z,0.45
2023-04-26T15:28:36.055Z,0.50
2023-04-26T15:33:38.169Z,0.30
2023-04-26T15:38:42.060Z,0.38
2023-04-26T15:43:44.170Z,0.63
2023-04-26T15:48:47.600Z,0.47
2023-04-26T15:53:50.816Z,0.70
2023-04-26T15:58:53.025Z,0.50
2023-04-26T16:03:56.811Z,0.47
2023-04-26T16:08:59.506Z,0.43
2023-04-26T16:14:02.002Z,0.50
2023-04-26T16:19:04.163Z,0.40
2023-04-26T16:24:09.267Z,0.43
2023-04-26T16:29:11.563Z,0.60
2023-04-26T16:34:13.872Z,0.73
2023-04-26T16:39:16.407Z,0.50
2023-04-26T16:44:18.663Z,0.32
2023-04-26T16:49:21.123Z,0.40
2023-04-26T16:54:23.207Z,0.50
2023-04-26T16:59:25.236Z,0.40
2023-04-26T17:04:27.576Z,0.50
2023-04-26T17:09:29.889Z,0.52
2023-04-26T17:14:32.847Z,0.47
2023-04-26T17:19:34.895Z,0.40
2023-04-26T17:24:37.205Z,0.60
2023-04-26T17:29:39.243Z,0.40
2023-04-26T17:34:41.456Z,0.40
2023-04-26T17:39:43.528Z,0.50
2023-04-26T17:44:45.504Z,0.40
2023-04-26T17:49:47.481Z,0.30
2023-04-26T17:54:49.587Z,0.47
2023-04-26T17:59:52.223Z,0.50
2023-04-26T18:04:55.383Z,0.40
2023-04-26T18:09:57.618Z,0.20
2023-04-26T18:14:59.721Z,0.43
2023-04-26T18:20:01.937Z,0.32
2023-04-26T18:25:04.197Z,0.40
2023-04-26T18:30:08.097Z,0.40
2023-04-26T18:35:10.626Z,0.40
2023-04-26T18:40:13.221Z,0.50
2023-04-26T18:45:15.459Z,0.40
2023-04-26T18:50:17.459Z,0.50
2023-04-26T18:55:19.866Z,0.35
2023-04-26T19:00:21.972Z,0.20
2023-04-26T19:05:24.696Z,0.30
2023-04-26T19:10:27.011Z,0.52
2023-04-26T19:15:29.440Z,0.30
2023-04-26T19:20:31.636Z,0.40
2023-04-26T19:25:34.686Z,0.32
2023-04-26T19:30:37.690Z,0.45
2023-04-26T19:35:39.780Z,0.35
2023-04-26T19:40:43.683Z,0.40
2023-04-26T19:45:46.196Z,0.25
2023-04-26T19:50:48.351Z,0.57
2023-04-26T19:55:50.752Z,0.38
2023-04-26T20:00:52.959Z,0.22
2023-04-26T20:05:55.157Z,0.30
2023-04-26T20:10:57.207Z,0.30
2023-04-26T20:15:59.136Z,0.32
2023-04-26T20:21:01.437Z,0.40
2023-04-26T20:26:04.140Z,0.40
2023-04-26T20:31:06.235Z,0.40
2023-04-26T20:36:08.424Z,0.40
2023-04-26T20:41:10.586Z,0.25
2023-04-26T20:46:12.700Z,0.30
2023-04-26T20:51:14.839Z,0.30
2023-04-26T20:56:16.870Z,0.30
2023-04-26T21:01:18.951Z,0.30
2023-04-26T21:06:20.968Z,0.22
2023-04-26T21:11:22.996Z,0.25
2023-04-26T21:16:25.292Z,0.40
2023-04-26T21:21:28.905Z,0.40
2023-04-26T21:26:31.117Z,0.25
2023-04-26T21:31:33.396Z,0.40
2023-04-26T21:36:36.219Z,0.30
2023-04-26T21:41:38.299Z,0.20
2023-04-26T21:46:40.458Z,0.20
2023-04-26T21:51:42.592Z,0.20
2023-04-26T21:56:44.668Z,0.40
2023-04-26T22:01:46.807Z,0.40
2023-04-26T22:06:49.002Z,0.50
2023-04-26T22:11:51.084Z,0.50
2023-04-26T22:16:53.194Z,0.38
2023-04-26T22:21:56.440Z,0.30
2023-04-26T22:26:58.589Z,0.17
2023-04-26T22:32:00.814Z,0.25
2023-04-26T22:37:17.200Z,0.30
2023-04-26T22:42:22.635Z,0.30
2023-04-26T22:47:24.698Z,0.30
2023-04-26T22:52:31.527Z,0.40
2023-04-26T22:57:34.182Z,0.20
2023-04-26T23:02:36.803Z,0.30
2023-04-26T23:07:39.976Z,0.28
2023-04-26T23:12:42.491Z,0.28
2023-04-26T23:17:45.787Z,0.35
2023-04-26T23:22:47.931Z,0.38
2023-04-26T23:27:50.156Z,0.32
2023-04-26T23:32:52.551Z,0.30
2023-04-26T23:37:54.679Z,0.43
2023-04-26T23:42:56.870Z,0.38
2023-04-26T23:47:58.933Z,0.40
2023-04-26T23:53:01.103Z,0.50
2023-04-26T23:58:03.252Z,0.52
